createdAt,value
2023-03-26T00:04:29.404Z,31.94
2023-03-26T00:09:36.694Z,32.00
2023-03-26T00:14:43.887Z,31.75
2023-03-26T00:19:51.240Z,31.36
2023-03-26T00:24:58.485Z,31.57
2023-03-26T00:30:05.745Z,32.08
2023-03-26T00:35:13.029Z,31.85
2023-03-26T00:40:20.242Z,32.20
2023-03-26T00:45:27.400Z,32.44
2023-03-26T00:50:34.664Z,32.49
2023-03-26T00:55:41.878Z,32.46
2023-03-26T01:00:49.056Z,32.56
2023-03-26T01:05:56.441Z,32.68
2023-03-26T01:11:03.560Z,32.70
2023-03-26T01:16:45.996Z,32.72
2023-03-26T01:22:21.046Z,32.72
2023-03-26T01:27:47.480Z,32.59
2023-03-26T01:33:30.518Z,32.72
2023-03-26T01:39:20.229Z,32.72
2023-03-26T01:45:02.516Z,32.87
2023-03-26T01:51:05.226Z,32.91
2023-03-26T01:55:32.987Z,33.00
2023-03-26T02:01:15.761Z,33.03
2023-03-26T02:07:03.696Z,33.09
2023-03-26T02:12:17.425Z,33.25
2023-03-26T02:17:25.205Z,33.33
2023-03-26T02:28:33.505Z,33.54
2023-03-26T02:38:22.197Z,33.69
2023-03-26T02:43:42.994Z,33.65
2023-03-26T02:48:51.114Z,33.65
2023-03-26T02:53:44.213Z,33.63
2023-03-26T02:53:58.933Z,33.62
2023-03-26T02:59:16.177Z,33.59
2023-03-26T03:05:07.567Z,33.62
2023-03-26T03:09:35.004Z,33.70
2023-03-26T03:14:42.405Z,33.72
2023-03-26T03:19:49.714Z,33.79
2023-03-26T03:25:00.099Z,33.65
2023-03-26T03:30:07.395Z,33.83
2023-03-26T03:35:14.725Z,33.91
2023-03-26T03:40:22.025Z,33.98
2023-03-26T03:45:29.260Z,34.04
2023-03-26T03:50:36.706Z,34.04
2023-03-26T03:55:43.966Z,34.23
2023-03-26T04:00:51.331Z,34.22
2023-03-26T04:05:58.580Z,34.26
2023-03-26T04:11:05.888Z,34.34
2023-03-26T04:16:13.105Z,34.40
2023-03-26T04:21:20.275Z,34.33
2023-03-26T04:26:27.592Z,34.47
2023-03-26T04:31:34.880Z,34.52
2023-03-26T04:36:41.987Z,34.49
2023-03-26T04:41:49.571Z,34.64
2023-03-26T04:46:56.821Z,34.65
2023-03-26T04:52:03.947Z,34.68
2023-03-26T04:57:11.218Z,34.62
2023-03-26T05:02:18.455Z,34.33
2023-03-26T05:07:25.711Z,34.56
2023-03-26T05:12:32.924Z,34.43
2023-03-26T05:17:40.130Z,34.49
2023-03-26T05:22:47.371Z,34.58
2023-03-26T05:27:54.567Z,34.58
2023-03-26T05:33:01.820Z,34.57
2023-03-26T05:38:08.919Z,34.68
2023-03-26T05:43:16.197Z,34.71
2023-03-26T05:48:23.392Z,34.66
2023-03-26T05:53:30.612Z,34.53
2023-03-26T05:58:37.861Z,34.47
2023-03-26T06:03:45.263Z,33.74
2023-03-26T06:09:02.208Z,34.42
2023-03-26T06:13:59.559Z,34.50
2023-03-26T06:19:06.803Z,34.11
2023-03-26T06:24:14.076Z,34.45
2023-03-26T06:29:21.288Z,34.18
2023-03-26T06:34:28.843Z,34.45
2023-03-26T06:39:36.038Z,34.52
2023-03-26T06:44:43.308Z,34.41
2023-03-26T06:49:50.481Z,34.55
2023-03-26T06:54:57.685Z,34.54
2023-03-26T07:00:04.875Z,34.55
2023-03-26T07:05:12.047Z,34.51
2023-03-26T07:10:19.257Z,34.57
2023-03-26T07:15:26.629Z,34.65
2023-03-26T07:20:33.688Z,34.65
2023-03-26T07:25:40.891Z,34.66
2023-03-26T07:30:48.108Z,34.40
2023-03-26T07:35:55.270Z,34.40
2023-03-26T07:41:02.474Z,34.18
2023-03-26T07:46:09.720Z,34.52
2023-03-26T07:51:16.799Z,34.52
2023-03-26T07:56:24.041Z,34.62
2023-03-26T08:01:31.270Z,34.66
2023-03-26T08:06:38.368Z,34.79
2023-03-26T08:11:45.553Z,34.84
2023-03-26T08:16:52.774Z,34.88
2023-03-26T08:21:59.932Z,34.94
2023-03-26T08:27:07.130Z,34.92
2023-03-26T08:32:14.410Z,34.97
2023-03-26T08:37:21.604Z,35.00
2023-03-26T08:42:28.866Z,35.01
2023-03-26T08:47:36.116Z,35.13
2023-03-26T08:52:43.294Z,35.19
2023-03-26T08:57:50.524Z,35.19
2023-03-26T09:02:57.748Z,35.22
2023-03-26T09:08:04.871Z,35.11
2023-03-26T09:13:12.025Z,35.08
2023-03-26T09:18:19.309Z,34.95
2023-03-26T09:23:26.541Z,34.97
2023-03-26T09:28:33.776Z,34.90
2023-03-26T09:33:40.940Z,35.14
2023-03-26T09:38:48.062Z,35.23
2023-03-26T09:43:55.323Z,35.34
2023-03-26T09:49:02.499Z,36.09
2023-03-26T09:54:09.678Z,36.10
2023-03-26T09:59:16.861Z,36.42
2023-03-26T10:04:24.170Z,36.42
2023-03-26T10:09:31.316Z,36.20
2023-03-26T10:14:38.538Z,36.13
2023-03-26T10:19:45.832Z,35.81
2023-03-26T10:24:52.983Z,35.96
2023-03-26T10:30:00.253Z,35.93
2023-03-26T10:35:07.756Z,35.84
2023-03-26T10:40:14.843Z,35.76
2023-03-26T10:45:22.026Z,35.61
2023-03-26T10:50:29.266Z,35.36
2023-03-26T10:55:36.368Z,35.22
2023-03-26T11:00:43.550Z,35.13
2023-03-26T11:05:50.819Z,35.04
2023-03-26T11:10:58.009Z,34.90
2023-03-26T11:16:05.254Z,34.89
2023-03-26T11:21:18.461Z,34.85
2023-03-26T11:26:19.585Z,34.78
2023-03-26T11:31:27.088Z,34.74
2023-03-26T11:36:34.376Z,34.71
2023-03-26T11:41:41.563Z,34.81
2023-03-26T11:46:48.769Z,34.75
2023-03-26T11:51:55.964Z,34.62
2023-03-26T11:57:04.732Z,34.58
2023-03-26T12:02:10.418Z,34.48
2023-03-26T12:07:17.651Z,34.51
2023-03-26T12:12:24.872Z,34.44
2023-03-26T12:17:32.190Z,34.36
2023-03-26T12:22:41.165Z,34.39
2023-03-26T12:27:46.593Z,34.36
2023-03-26T12:32:54.515Z,34.25
2023-03-26T12:38:02.955Z,34.20
2023-03-26T12:44:55.666Z,34.20
2023-03-26T12:48:17.636Z,34.23
2023-03-26T12:53:25.168Z,34.16
2023-03-26T12:58:32.608Z,34.06
2023-03-26T13:03:39.820Z,33.96
2023-03-26T13:08:47.187Z,33.89
2023-03-26T13:13:54.473Z,33.87
2023-03-26T13:19:01.898Z,33.78
2023-03-26T13:24:09.185Z,33.78
2023-03-26T13:29:16.617Z,33.67
2023-03-26T13:34:23.936Z,33.66
2023-03-26T13:39:31.238Z,33.59
2023-03-26T13:44:38.411Z,33.54
2023-03-26T13:49:45.941Z,33.60
2023-03-26T13:54:53.311Z,33.62
2023-03-26T14:00:00.499Z,33.54
2023-03-26T14:05:07.984Z,33.46
2023-03-26T14:10:15.611Z,33.13
2023-03-26T14:15:22.929Z,33.12
2023-03-26T14:20:30.392Z,33.57
2023-03-26T14:25:38.137Z,34.01
2023-03-26T14:30:45.530Z,33.93
2023-03-26T14:35:52.786Z,34.26
2023-03-26T14:41:00.365Z,34.25
2023-03-26T14:46:07.979Z,34.14
2023-03-26T14:51:15.601Z,33.94
2023-03-26T14:56:23.824Z,33.71
2023-03-26T15:01:31.387Z,32.62
2023-03-26T15:06:38.675Z,32.88
2023-03-26T15:11:46.029Z,33.46
2023-03-26T15:16:53.380Z,32.33
2023-03-26T15:22:01.977Z,33.30
2023-03-26T15:27:09.614Z,33.19
2023-03-26T15:32:17.031Z,32.01
2023-03-26T15:37:24.612Z,32.39
2023-03-26T15:42:32.016Z,32.58
2023-03-26T15:47:39.313Z,32.94
2023-03-26T15:52:46.442Z,33.07
2023-03-26T15:57:53.717Z,33.36
2023-03-26T16:03:00.946Z,33.33
2023-03-26T16:08:08.103Z,33.50
2023-03-26T16:13:15.686Z,33.71
2023-03-26T16:18:23.480Z,33.83
2023-03-26T16:23:30.917Z,33.52
2023-03-26T16:28:38.532Z,33.76
2023-03-26T16:33:46.628Z,33.78
2023-03-26T16:38:54.243Z,33.88
2023-03-26T16:44:01.910Z,33.86
2023-03-26T16:49:09.471Z,33.88
2023-03-26T16:54:17.189Z,33.87
2023-03-26T16:59:24.933Z,33.93
2023-03-26T17:04:32.523Z,33.85
2023-03-26T17:09:40.128Z,33.77
2023-03-26T17:14:47.786Z,33.75
2023-03-26T17:19:55.495Z,33.69
2023-03-26T17:25:03.603Z,33.73
2023-03-26T17:30:11.135Z,33.71
2023-03-26T17:35:18.830Z,33.51
2023-03-26T17:40:26.641Z,33.65
2023-03-26T17:45:34.400Z,33.57
2023-03-26T17:50:41.973Z,33.54
2023-03-26T17:55:51.206Z,33.54
2023-03-26T18:00:57.642Z,33.61
2023-03-26T18:06:05.027Z,33.67
2023-03-26T18:11:12.735Z,34.23
2023-03-26T18:16:20.520Z,34.00
2023-03-26T18:21:28.251Z,33.97
2023-03-26T18:26:36.406Z,34.17
2023-03-26T18:31:43.892Z,33.89
2023-03-26T18:36:51.428Z,33.58
2023-03-26T18:41:59.049Z,33.65
2023-03-26T18:47:06.986Z,33.55
2023-03-26T18:52:14.674Z,33.51
2023-03-26T18:57:22.442Z,33.45
2023-03-26T19:02:30.400Z,33.29
2023-03-26T19:07:37.687Z,33.27
2023-03-26T19:12:45.236Z,33.22
2023-03-26T19:17:53.094Z,33.20
2023-03-26T19:23:00.673Z,33.14
2023-03-26T19:28:08.006Z,32.99
2023-03-26T19:33:15.398Z,32.80
2023-03-26T19:38:22.892Z,31.71
2023-03-26T19:43:30.614Z,31.76
2023-03-26T19:48:46.353Z,32.52
2023-03-26T19:53:46.057Z,32.88
2023-03-26T19:58:55.477Z,32.83
2023-03-26T20:04:03.510Z,32.83
2023-03-26T20:09:11.195Z,32.73
2023-03-26T20:14:18.763Z,32.61
2023-03-26T20:19:26.504Z,32.49
2023-03-26T20:24:34.105Z,32.81
2023-03-26T20:29:41.456Z,32.93
2023-03-26T20:34:50.068Z,33.17
2023-03-26T20:39:57.344Z,32.86
2023-03-26T20:45:04.626Z,32.78
2023-03-26T20:50:12.359Z,32.90
2023-03-26T20:55:19.469Z,32.38
2023-03-26T21:00:27.104Z,32.63
2023-03-26T21:05:35.213Z,32.48
2023-03-26T21:10:42.376Z,32.04
2023-03-26T21:15:49.616Z,31.82
2023-03-26T21:20:58.644Z,32.14
2023-03-26T21:26:04.429Z,32.06
2023-03-26T21:31:11.710Z,32.09
2023-03-26T21:36:19.069Z,32.22
2023-03-26T21:41:26.218Z,32.40
2023-03-26T21:46:33.463Z,32.38
2023-03-26T21:51:40.754Z,32.39
2023-03-26T21:56:47.917Z,32.34
2023-03-26T22:01:55.093Z,32.25
2023-03-26T22:07:02.352Z,32.23
2023-03-26T22:12:09.546Z,32.17
2023-03-26T22:17:16.786Z,32.14
2023-03-26T22:22:24.053Z,31.94
2023-03-26T22:27:31.229Z,31.96
2023-03-26T22:32:38.830Z,31.88
2023-03-26T22:38:01.506Z,32.11
2023-03-26T22:43:09.471Z,32.11
2023-03-26T22:48:21.897Z,32.02
2023-03-26T22:54:04.521Z,32.07
2023-03-26T22:59:03.285Z,32.11
2023-03-26T23:04:45.507Z,32.17
2023-03-26T23:09:57.274Z,32.20
2023-03-26T23:15:12.349Z,32.33
2023-03-26T23:21:11.964Z,32.36
2023-03-26T23:25:42.601Z,32.62
2023-03-26T23:30:53.607Z,32.72
2023-03-26T23:36:07.701Z,32.84
2023-03-26T23:41:15.619Z,32.96
2023-03-26T23:46:36.587Z,33.05
2023-03-26T23:51:44.584Z,33.13
2023-03-26T23:57:45.684Z,33.26
